sensor_id;sensor_type;location;lat;lon;timestamp;P1;durP1;ratioP1;P2;durP2;ratioP2
5630;SDS011;2837;50.990;7.124;2024-02-16T06:01:55;157.10;;;10.50;;
5630;SDS011;2837;50.990;7.124;2024-02-16T06:04:22;157.02;;;10.18;;
5630;SDS011;2837;50.990;7.124;2024-02-16T06:06:48;156.82;;;10.82;;
5630;SDS011;2837;50.990;7.124;2024-02-16T06:09:14;156.77;;;10.50;;
5630;SDS011;2837;50.990;7.124;2024-02-16T06:11:40;156.90;;;10.15;;
5630;SDS011;2837;50.990;7.124;2024-02-16T06:14:06;156.45;;;10.52;;
5630;SDS011;2837;50.990;7.124;2024-02-16T06:16:32;156.07;;;10.00;;
5630;SDS011;2837;50.990;7.124;2024-02-16T06:18:58;157.73;;;10.18;;
5630;SDS011;2837;50.990;7.124;2024-02-16T06:21:25;158.63;;;11.23;;
5630;SDS011;2837;50.990;7.124;2024-02-16T06:23:51;155.68;;;9.43;;
5630;SDS011;2837;50.990;7.124;2024-02-16T06:26:16;159.57;;;11.18;;
5630;SDS011;2837;50.990;7.124;2024-02-16T06:28:42;157.00;;;10.53;;
5630;SDS011;2837;50.990;7.124;2024-02-16T06:31:08;156.67;;;9.60;;
5630;SDS011;2837;50.990;7.124;2024-02-16T06:33:35;156.90;;;11.10;;
5630;SDS011;2837;50.990;7.124;2024-02-16T06:36:01;155.98;;;10.32;;
5630;SDS011;2837;50.990;7.124;2024-02-16T06:38:27;158.57;;;10.97;;
5630;SDS011;2837;50.990;7.124;2024-02-16T06:40:53;156.23;;;10.33;;
5630;SDS011;2837;50.990;7.124;2024-02-16T06:43:19;158.33;;;10.47;;
5630;SDS011;2837;50.990;7.124;2024-02-16T06:45:45;156.73;;;10.60;;
5630;SDS011;2837;50.990;7.124;2024-02-16T06:48:11;156.38;;;10.45;;
5630;SDS011;2837;50.990;7.124;2024-02-16T06:50:37;155.40;;;9.60;;
5630;SDS011;2837;50.990;7.124;2024-02-16T06:53:03;157.40;;;11.23;;
5630;SDS011;2837;50.990;7.124;2024-02-16T06:55:29;156.77;;;11.13;;
5630;SDS011;2837;50.990;7.124;2024-02-16T06:57:55;156.77;;;10.68;;
5630;SDS011;2837;50.990;7.124;2024-02-16T07:00:20;156.40;;;10.80;;
5630;SDS011;2837;50.990;7.124;2024-02-16T07:02:46;158.38;;;11.82;;
5630;SDS011;2837;50.990;7.124;2024-02-16T07:05:12;156.65;;;11.90;;
5630;SDS011;2837;50.990;7.124;2024-02-16T07:07:38;157.45;;;11.50;;
5630;SDS011;2837;50.990;7.124;2024-02-16T07:10:04;159.18;;;13.23;;
5630;SDS011;2837;50.990;7.124;2024-02-16T07:12:30;158.77;;;13.48;;
5630;SDS011;2837;50.990;7.124;2024-02-16T07:14:58;158.15;;;13.95;;
5630;SDS011;2837;50.990;7.124;2024-02-16T07:17:24;157.02;;;12.57;;
5630;SDS011;2837;50.990;7.124;2024-02-16T07:19:50;159.02;;;14.48;;
5630;SDS011;2837;50.990;7.124;2024-02-16T07:22:16;159.98;;;14.25;;
5630;SDS011;2837;50.990;7.124;2024-02-16T07:24:42;158.85;;;14.80;;
5630;SDS011;2837;50.990;7.124;2024-02-16T07:27:08;158.48;;;15.00;;
5630;SDS011;2837;50.990;7.124;2024-02-16T07:29:34;159.40;;;15.23;;
5630;SDS011;2837;50.990;7.124;2024-02-16T07:32:01;163.52;;;15.57;;
5630;SDS011;2837;50.990;7.124;2024-02-16T07:34:28;158.40;;;14.43;;
5630;SDS011;2837;50.990;7.124;2024-02-16T07:36:53;158.30;;;13.90;;
5630;SDS011;2837;50.990;7.124;2024-02-16T07:39:20;160.03;;;16.20;;
5630;SDS011;2837;50.990;7.124;2024-02-16T07:41:48;159.32;;;14.57;;
5630;SDS011;2837;50.990;7.124;2024-02-16T07:44:14;160.60;;;15.93;;
5630;SDS011;2837;50.990;7.124;2024-02-16T07:46:40;159.90;;;16.88;;
5630;SDS011;2837;50.990;7.124;2024-02-16T07:49:06;158.30;;;14.10;;
5630;SDS011;2837;50.990;7.124;2024-02-16T07:51:32;161.35;;;16.80;;
5630;SDS011;2837;50.990;7.124;2024-02-16T07:53:58;159.38;;;15.35;;
5630;SDS011;2837;50.990;7.124;2024-02-16T07:56:24;160.32;;;15.50;;
5630;SDS011;2837;50.990;7.124;2024-02-16T07:58:50;160.82;;;17.52;;
5630;SDS011;2837;50.990;7.124;2024-02-16T08:01:15;159.18;;;15.55;;
5630;SDS011;2837;50.990;7.124;2024-02-16T08:03:41;159.85;;;16.08;;
5630;SDS011;2837;50.990;7.124;2024-02-16T08:06:07;160.77;;;17.10;;
5630;SDS011;2837;50.990;7.124;2024-02-16T08:08:33;160.02;;;16.27;;
5630;SDS011;2837;50.990;7.124;2024-02-16T08:10:58;159.60;;;15.50;;
5630;SDS011;2837;50.990;7.124;2024-02-16T08:13:24;161.25;;;17.83;;
5630;SDS011;2837;50.990;7.124;2024-02-16T08:15:50;164.43;;;18.10;;
5630;SDS011;2837;50.990;7.124;2024-02-16T08:18:17;160.95;;;17.02;;
5630;SDS011;2837;50.990;7.124;2024-02-16T08:20:42;161.48;;;17.05;;
5630;SDS011;2837;50.990;7.124;2024-02-16T08:23:08;161.48;;;18.65;;
5630;SDS011;2837;50.990;7.124;2024-02-16T08:25:34;162.15;;;17.83;;
5630;SDS011;2837;50.990;7.124;2024-02-16T08:28:00;161.45;;;18.42;;
5630;SDS011;2837;50.990;7.124;2024-02-16T08:30:27;162.50;;;16.75;;
5630;SDS011;2837;50.990;7.124;2024-02-16T08:32:52;159.35;;;16.55;;
5630;SDS011;2837;50.990;7.124;2024-02-16T08:35:18;160.38;;;16.52;;
5630;SDS011;2837;50.990;7.124;2024-02-16T08:37:45;161.85;;;18.00;;
5630;SDS011;2837;50.990;7.124;2024-02-16T08:40:14;161.18;;;18.65;;
5630;SDS011;2837;50.990;7.124;2024-02-16T08:42:40;160.33;;;17.20;;
5630;SDS011;2837;50.990;7.124;2024-02-16T08:45:07;162.38;;;17.90;;
5630;SDS011;2837;50.990;7.124;2024-02-16T08:47:33;159.27;;;15.63;;
5630;SDS011;2837;50.990;7.124;2024-02-16T08:49:59;161.40;;;17.15;;
5630;SDS011;2837;50.990;7.124;2024-02-16T08:52:26;162.02;;;18.60;;
5630;SDS011;2837;50.990;7.124;2024-02-16T08:54:52;159.63;;;16.63;;
5630;SDS011;2837;50.990;7.124;2024-02-16T08:57:18;162.27;;;17.77;;
5630;SDS011;2837;50.990;7.124;2024-02-16T08:59:45;159.20;;;16.27;;
5630;SDS011;2837;50.990;7.124;2024-02-16T09:02:11;162.47;;;16.13;;
5630;SDS011;2837;50.990;7.124;2024-02-16T09:04:37;160.48;;;16.63;;
5630;SDS011;2837;50.990;7.124;2024-02-16T09:07:05;158.30;;;14.15;;
5630;SDS011;2837;50.990;7.124;2024-02-16T09:09:32;159.80;;;15.35;;
5630;SDS011;2837;50.990;7.124;2024-02-16T09:11:58;159.82;;;16.30;;
5630;SDS011;2837;50.990;7.124;2024-02-16T09:14:24;160.83;;;15.60;;
5630;SDS011;2837;50.990;7.124;2024-02-16T09:16:50;158.45;;;14.35;;
5630;SDS011;2837;50.990;7.124;2024-02-16T09:19:16;159.45;;;15.98;;
5630;SDS011;2837;50.990;7.124;2024-02-16T09:21:43;159.50;;;15.27;;
5630;SDS011;2837;50.990;7.124;2024-02-16T09:24:08;161.05;;;14.88;;
5630;SDS011;2837;50.990;7.124;2024-02-16T09:26:36;159.50;;;15.05;;
5630;SDS011;2837;50.990;7.124;2024-02-16T09:29:02;159.55;;;14.50;;
5630;SDS011;2837;50.990;7.124;2024-02-16T09:31:28;158.93;;;14.35;;
5630;SDS011;2837;50.990;7.124;2024-02-16T09:33:53;160.30;;;14.20;;
5630;SDS011;2837;50.990;7.124;2024-02-16T09:36:19;159.82;;;14.85;;
5630;SDS011;2837;50.990;7.124;2024-02-16T09:38:45;160.38;;;13.77;;
5630;SDS011;2837;50.990;7.124;2024-02-16T09:41:12;158.55;;;13.40;;
5630;SDS011;2837;50.990;7.124;2024-02-16T09:43:40;159.10;;;13.57;;
5630;SDS011;2837;50.990;7.124;2024-02-16T09:46:07;158.23;;;13.60;;
5630;SDS011;2837;50.990;7.124;2024-02-16T09:48:35;158.45;;;13.40;;
5630;SDS011;2837;50.990;7.124;2024-02-16T09:51:01;158.80;;;14.05;;
5630;SDS011;2837;50.990;7.124;2024-02-16T09:53:27;159.77;;;13.40;;
5630;SDS011;2837;50.990;7.124;2024-02-16T09:55:54;158.00;;;12.63;;
5630;SDS011;2837;50.990;7.124;2024-02-16T09:58:20;160.30;;;14.10;;
5630;SDS011;2837;50.990;7.124;2024-02-16T10:03:25;161.50;;;13.63;;
5630;SDS011;2837;50.990;7.124;2024-02-16T10:05:52;156.50;;;10.80;;
5630;SDS011;2837;50.990;7.124;2024-02-16T10:08:18;159.48;;;14.27;;
5630;SDS011;2837;50.990;7.124;2024-02-16T10:10:44;157.38;;;11.15;;
5630;SDS011;2837;50.990;7.124;2024-02-16T10:13:10;158.57;;;12.03;;
5630;SDS011;2837;50.990;7.124;2024-02-16T10:15:36;158.57;;;13.25;;
5630;SDS011;2837;50.990;7.124;2024-02-16T10:18:05;160.13;;;13.65;;
5630;SDS011;2837;50.990;7.124;2024-02-16T10:20:34;159.10;;;13.98;;
5630;SDS011;2837;50.990;7.124;2024-02-16T10:23:04;159.50;;;12.30;;
5630;SDS011;2837;50.990;7.124;2024-02-16T10:25:34;159.40;;;14.25;;
5630;SDS011;2837;50.990;7.124;2024-02-16T10:28:05;158.70;;;12.88;;
5630;SDS011;2837;50.990;7.124;2024-02-16T10:30:38;160.40;;;14.80;;
5630;SDS011;2837;50.990;7.124;2024-02-16T10:33:07;161.40;;;14.80;;
5630;SDS011;2837;50.990;7.124;2024-02-16T10:35:34;158.88;;;12.40;;
5630;SDS011;2837;50.990;7.124;2024-02-16T10:38:03;159.87;;;12.80;;
5630;SDS011;2837;50.990;7.124;2024-02-16T10:40:34;159.65;;;11.70;;
5630;SDS011;2837;50.990;7.124;2024-02-16T10:43:03;158.87;;;13.17;;
5630;SDS011;2837;50.990;7.124;2024-02-16T10:45:32;160.30;;;14.82;;
5630;SDS011;2837;50.990;7.124;2024-02-16T10:47:58;160.70;;;14.77;;
5630;SDS011;2837;50.990;7.124;2024-02-16T10:50:24;159.73;;;14.57;;
5630;SDS011;2837;50.990;7.124;2024-02-16T10:52:50;159.68;;;14.50;;
5630;SDS011;2837;50.990;7.124;2024-02-16T10:55:18;159.32;;;14.43;;
5630;SDS011;2837;50.990;7.124;2024-02-16T10:57:44;160.60;;;14.50;;
5630;SDS011;2837;50.990;7.124;2024-02-16T11:00:10;158.48;;;11.70;;
5630;SDS011;2837;50.990;7.124;2024-02-16T11:02:55;160.25;;;14.27;;
5630;SDS011;2837;50.990;7.124;2024-02-16T11:05:39;163.18;;;15.48;;
5630;SDS011;2837;50.990;7.124;2024-02-16T11:08:13;161.80;;;15.35;;
5630;SDS011;2837;50.990;7.124;2024-02-16T11:10:40;161.07;;;15.90;;
5630;SDS011;2837;50.990;7.124;2024-02-16T11:13:06;160.18;;;15.85;;
5630;SDS011;2837;50.990;7.124;2024-02-16T11:15:33;162.02;;;16.13;;
5630;SDS011;2837;50.990;7.124;2024-02-16T11:18:00;160.68;;;14.27;;
5630;SDS011;2837;50.990;7.124;2024-02-16T11:20:26;159.38;;;14.00;;
5630;SDS011;2837;50.990;7.124;2024-02-16T11:22:52;160.07;;;12.10;;
5630;SDS011;2837;50.990;7.124;2024-02-16T11:25:18;159.82;;;13.77;;
5630;SDS011;2837;50.990;7.124;2024-02-16T11:27:46;160.60;;;15.45;;
5630;SDS011;2837;50.990;7.124;2024-02-16T11:30:12;160.40;;;15.13;;
5630;SDS011;2837;50.990;7.124;2024-02-16T11:32:38;159.63;;;14.70;;
5630;SDS011;2837;50.990;7.124;2024-02-16T11:35:06;161.98;;;14.85;;
5630;SDS011;2837;50.990;7.124;2024-02-16T11:37:32;161.25;;;15.63;;
5630;SDS011;2837;50.990;7.124;2024-02-16T11:39:58;160.80;;;13.57;;
5630;SDS011;2837;50.990;7.124;2024-02-16T11:42:24;160.07;;;13.27;;
5630;SDS011;2837;50.990;7.124;2024-02-16T11:44:51;158.30;;;13.10;;
5630;SDS011;2837;50.990;7.124;2024-02-16T11:47:21;161.10;;;14.00;;
5630;SDS011;2837;50.990;7.124;2024-02-16T11:50:09;158.25;;;12.55;;
5630;SDS011;2837;50.990;7.124;2024-02-16T11:52:36;158.80;;;12.85;;
5630;SDS011;2837;50.990;7.124;2024-02-16T11:55:03;158.15;;;11.27;;
5630;SDS011;2837;50.990;7.124;2024-02-16T11:57:29;157.25;;;11.60;;
5630;SDS011;2837;50.990;7.124;2024-02-16T11:59:55;161.20;;;13.45;;
5630;SDS011;2837;50.990;7.124;2024-02-16T12:02:23;161.60;;;13.60;;
5630;SDS011;2837;50.990;7.124;2024-02-16T12:04:57;158.87;;;14.00;;
5630;SDS011;2837;50.990;7.124;2024-02-16T12:07:25;159.15;;;13.35;;
5630;SDS011;2837;50.990;7.124;2024-02-16T12:09:58;163.15;;;14.00;;
5630;SDS011;2837;50.990;7.124;2024-02-16T12:12:25;160.05;;;13.88;;
5630;SDS011;2837;50.990;7.124;2024-02-16T12:14:52;159.10;;;12.37;;
5630;SDS011;2837;50.990;7.124;2024-02-16T12:17:18;157.50;;;12.38;;
5630;SDS011;2837;50.990;7.124;2024-02-16T12:19:45;161.60;;;12.98;;
5630;SDS011;2837;50.990;7.124;2024-02-16T12:22:16;159.10;;;12.88;;
5630;SDS011;2837;50.990;7.124;2024-02-16T12:24:42;159.30;;;12.38;;
5630;SDS011;2837;50.990;7.124;2024-02-16T12:27:08;162.15;;;13.68;;
5630;SDS011;2837;50.990;7.124;2024-02-16T12:29:34;160.05;;;13.05;;
5630;SDS011;2837;50.990;7.124;2024-02-16T12:32:00;159.17;;;13.10;;
5630;SDS011;2837;50.990;7.124;2024-02-16T12:34:25;161.10;;;13.80;;
5630;SDS011;2837;50.990;7.124;2024-02-16T12:36:51;160.60;;;12.10;;
5630;SDS011;2837;50.990;7.124;2024-02-16T12:39:17;160.10;;;13.07;;
5630;SDS011;2837;50.990;7.124;2024-02-16T12:41:43;159.32;;;11.65;;
5630;SDS011;2837;50.990;7.124;2024-02-16T12:44:09;161.50;;;12.97;;
5630;SDS011;2837;50.990;7.124;2024-02-16T12:46:34;160.32;;;13.55;;
5630;SDS011;2837;50.990;7.124;2024-02-16T12:49:00;160.73;;;13.77;;
5630;SDS011;2837;50.990;7.124;2024-02-16T12:51:26;159.52;;;14.00;;
5630;SDS011;2837;50.990;7.124;2024-02-16T12:53:52;159.77;;;12.73;;
5630;SDS011;2837;50.990;7.124;2024-02-16T12:56:18;161.53;;;12.63;;
5630;SDS011;2837;50.990;7.124;2024-02-16T12:58:45;159.93;;;13.20;;
5630;SDS011;2837;50.990;7.124;2024-02-16T13:01:10;161.00;;;13.57;;
5630;SDS011;2837;50.990;7.124;2024-02-16T13:03:38;160.00;;;14.13;;
5630;SDS011;2837;50.990;7.124;2024-02-16T13:06:06;159.48;;;12.73;;
5630;SDS011;2837;50.990;7.124;2024-02-16T13:08:32;159.63;;;13.10;;
5630;SDS011;2837;50.990;7.124;2024-02-16T13:10:57;160.35;;;14.82;;
5630;SDS011;2837;50.990;7.124;2024-02-16T13:13:23;161.00;;;15.15;;
5630;SDS011;2837;50.990;7.124;2024-02-16T13:15:49;160.48;;;14.60;;
5630;SDS011;2837;50.990;7.124;2024-02-16T13:18:16;164.63;;;15.85;;
5630;SDS011;2837;50.990;7.124;2024-02-16T13:20:42;159.45;;;14.27;;
5630;SDS011;2837;50.990;7.124;2024-02-16T13:23:08;162.18;;;15.27;;
5630;SDS011;2837;50.990;7.124;2024-02-16T13:25:34;158.43;;;12.80;;
5630;SDS011;2837;50.990;7.124;2024-02-16T13:28:00;161.00;;;14.80;;
5630;SDS011;2837;50.990;7.124;2024-02-16T13:30:26;162.23;;;14.75;;
5630;SDS011;2837;50.990;7.124;2024-02-16T13:32:52;160.40;;;15.13;;
5630;SDS011;2837;50.990;7.124;2024-02-16T13:35:18;163.43;;;16.38;;
5630;SDS011;2837;50.990;7.124;2024-02-16T13:37:44;162.85;;;15.40;;
5630;SDS011;2837;50.990;7.124;2024-02-16T13:40:10;161.30;;;15.83;;
5630;SDS011;2837;50.990;7.124;2024-02-16T13:42:40;164.77;;;18.33;;
5630;SDS011;2837;50.990;7.124;2024-02-16T13:45:06;164.23;;;16.48;;
5630;SDS011;2837;50.990;7.124;2024-02-16T13:47:33;161.60;;;15.37;;
5630;SDS011;2837;50.990;7.124;2024-02-16T13:49:58;166.27;;;16.85;;
5630;SDS011;2837;50.990;7.124;2024-02-16T13:52:25;160.73;;;14.57;;
5630;SDS011;2837;50.990;7.124;2024-02-16T13:54:51;161.32;;;14.65;;
5630;SDS011;2837;50.990;7.124;2024-02-16T13:57:17;161.57;;;16.00;;
5630;SDS011;2837;50.990;7.124;2024-02-16T13:59:42;162.60;;;15.48;;
5630;SDS011;2837;50.990;7.124;2024-02-16T14:02:12;161.38;;;15.43;;
5630;SDS011;2837;50.990;7.124;2024-02-16T14:04:38;164.73;;;14.95;;
5630;SDS011;2837;50.990;7.124;2024-02-16T14:07:04;161.55;;;16.85;;
5630;SDS011;2837;50.990;7.124;2024-02-16T14:09:30;162.38;;;17.38;;
5630;SDS011;2837;50.990;7.124;2024-02-16T14:11:56;161.38;;;14.48;;
5630;SDS011;2837;50.990;7.124;2024-02-16T14:14:24;161.18;;;16.55;;
5630;SDS011;2837;50.990;7.124;2024-02-16T14:16:50;161.95;;;15.48;;
5630;SDS011;2837;50.990;7.124;2024-02-16T14:19:16;163.15;;;17.50;;
5630;SDS011;2837;50.990;7.124;2024-02-16T14:21:42;161.65;;;15.85;;
5630;SDS011;2837;50.990;7.124;2024-02-16T14:24:09;161.73;;;15.75;;
5630;SDS011;2837;50.990;7.124;2024-02-16T14:26:38;162.45;;;16.70;;
5630;SDS011;2837;50.990;7.124;2024-02-16T14:29:06;163.73;;;17.08;;
5630;SDS011;2837;50.990;7.124;2024-02-16T14:31:32;166.13;;;18.33;;
5630;SDS011;2837;50.990;7.124;2024-02-16T14:33:58;163.13;;;17.73;;
5630;SDS011;2837;50.990;7.124;2024-02-16T14:36:24;161.63;;;16.58;;
5630;SDS011;2837;50.990;7.124;2024-02-16T14:38:50;161.20;;;16.90;;
5630;SDS011;2837;50.990;7.124;2024-02-16T14:41:16;163.23;;;16.77;;
5630;SDS011;2837;50.990;7.124;2024-02-16T14:43:42;160.73;;;16.23;;
5630;SDS011;2837;50.990;7.124;2024-02-16T14:46:08;162.77;;;17.00;;
5630;SDS011;2837;50.990;7.124;2024-02-16T14:48:34;162.57;;;14.23;;
5630;SDS011;2837;50.990;7.124;2024-02-16T14:51:00;161.48;;;16.80;;
5630;SDS011;2837;50.990;7.124;2024-02-16T14:53:27;163.65;;;17.65;;
5630;SDS011;2837;50.990;7.124;2024-02-16T14:55:55;163.32;;;17.35;;
5630;SDS011;2837;50.990;7.124;2024-02-16T14:58:21;163.20;;;15.00;;
5630;SDS011;2837;50.990;7.124;2024-02-16T15:00:46;162.32;;;16.83;;
5630;SDS011;2837;50.990;7.124;2024-02-16T15:03:12;161.95;;;16.98;;
5630;SDS011;2837;50.990;7.124;2024-02-16T15:05:39;162.50;;;16.85;;
5630;SDS011;2837;50.990;7.124;2024-02-16T15:08:06;161.30;;;16.23;;
5630;SDS011;2837;50.990;7.124;2024-02-16T15:10:32;161.90;;;16.55;;
5630;SDS011;2837;50.990;7.124;2024-02-16T15:12:58;160.57;;;15.10;;
5630;SDS011;2837;50.990;7.124;2024-02-16T15:15:23;162.50;;;16.65;;
5630;SDS011;2837;50.990;7.124;2024-02-16T15:17:49;159.02;;;12.82;;
5630;SDS011;2837;50.990;7.124;2024-02-16T15:20:15;162.03;;;16.70;;
5630;SDS011;2837;50.990;7.124;2024-02-16T15:22:41;160.80;;;16.27;;
5630;SDS011;2837;50.990;7.124;2024-02-16T15:25:07;162.43;;;17.05;;
5630;SDS011;2837;50.990;7.124;2024-02-16T15:27:33;163.88;;;17.73;;
5630;SDS011;2837;50.990;7.124;2024-02-16T15:30:01;163.60;;;18.20;;
5630;SDS011;2837;50.990;7.124;2024-02-16T15:32:27;162.98;;;16.85;;
5630;SDS011;2837;50.990;7.124;2024-02-16T15:34:53;163.20;;;15.40;;
5630;SDS011;2837;50.990;7.124;2024-02-16T15:37:20;162.75;;;17.33;;
5630;SDS011;2837;50.990;7.124;2024-02-16T15:39:46;162.95;;;17.38;;
5630;SDS011;2837;50.990;7.124;2024-02-16T15:42:13;163.18;;;17.10;;
5630;SDS011;2837;50.990;7.124;2024-02-16T15:44:39;163.25;;;17.80;;
5630;SDS011;2837;50.990;7.124;2024-02-16T15:47:04;162.38;;;17.20;;
5630;SDS011;2837;50.990;7.124;2024-02-16T15:49:30;162.30;;;17.37;;
5630;SDS011;2837;50.990;7.124;2024-02-16T15:51:55;160.90;;;16.55;;
5630;SDS011;2837;50.990;7.124;2024-02-16T15:54:21;161.80;;;16.80;;
5630;SDS011;2837;50.990;7.124;2024-02-16T15:56:50;162.75;;;17.23;;
5630;SDS011;2837;50.990;7.124;2024-02-16T15:59:17;163.55;;;18.33;;
5630;SDS011;2837;50.990;7.124;2024-02-16T16:01:43;162.50;;;16.20;;
5630;SDS011;2837;50.990;7.124;2024-02-16T16:04:10;161.70;;;17.13;;
5630;SDS011;2837;50.990;7.124;2024-02-16T16:06:35;162.20;;;16.75;;
5630;SDS011;2837;50.990;7.124;2024-02-16T16:09:01;162.73;;;17.30;;
5630;SDS011;2837;50.990;7.124;2024-02-16T16:11:31;161.52;;;16.20;;
5630;SDS011;2837;50.990;7.124;2024-02-16T16:13:57;161.82;;;17.40;;
5630;SDS011;2837;50.990;7.124;2024-02-16T16:16:22;160.97;;;16.20;;
5630;SDS011;2837;50.990;7.124;2024-02-16T16:18:48;160.80;;;16.50;;
5630;SDS011;2837;50.990;7.124;2024-02-16T16:21:15;160.60;;;16.23;;
5630;SDS011;2837;50.990;7.124;2024-02-16T16:23:41;160.93;;;16.80;;
5630;SDS011;2837;50.990;7.124;2024-02-16T16:26:07;160.50;;;15.45;;
5630;SDS011;2837;50.990;7.124;2024-02-16T16:28:33;160.15;;;14.32;;
5630;SDS011;2837;50.990;7.124;2024-02-16T16:30:59;161.70;;;16.60;;
5630;SDS011;2837;50.990;7.124;2024-02-16T16:33:25;161.45;;;16.35;;
5630;SDS011;2837;50.990;7.124;2024-02-16T16:35:51;160.43;;;16.10;;
5630;SDS011;2837;50.990;7.124;2024-02-16T16:38:17;159.90;;;14.70;;
5630;SDS011;2837;50.990;7.124;2024-02-16T16:40:43;158.90;;;13.75;;
5630;SDS011;2837;50.990;7.124;2024-02-16T16:43:09;164.63;;;18.80;;
5630;SDS011;2837;50.990;7.124;2024-02-16T16:45:36;159.38;;;14.93;;
5630;SDS011;2837;50.990;7.124;2024-02-16T16:48:02;159.20;;;14.50;;
5630;SDS011;2837;50.990;7.124;2024-02-16T16:50:28;161.20;;;16.07;;
5630;SDS011;2837;50.990;7.124;2024-02-16T16:52:55;161.17;;;15.90;;
5630;SDS011;2837;50.990;7.124;2024-02-16T16:55:21;159.93;;;13.17;;
5630;SDS011;2837;50.990;7.124;2024-02-16T16:57:47;163.00;;;17.70;;
5630;SDS011;2837;50.990;7.124;2024-02-16T17:00:13;160.75;;;15.98;;
5630;SDS011;2837;50.990;7.124;2024-02-16T17:02:39;161.47;;;16.80;;
5630;SDS011;2837;50.990;7.124;2024-02-16T17:05:05;160.00;;;15.47;;
5630;SDS011;2837;50.990;7.124;2024-02-16T17:07:34;160.75;;;15.85;;
5630;SDS011;2837;50.990;7.124;2024-02-16T17:10:00;162.15;;;17.20;;
5630;SDS011;2837;50.990;7.124;2024-02-16T17:12:25;160.40;;;15.63;;
5630;SDS011;2837;50.990;7.124;2024-02-16T17:14:51;161.05;;;14.63;;
5630;SDS011;2837;50.990;7.124;2024-02-16T17:17:18;160.67;;;15.43;;
5630;SDS011;2837;50.990;7.124;2024-02-16T17:19:44;163.93;;;17.92;;
5630;SDS011;2837;50.990;7.124;2024-02-16T17:22:10;160.40;;;15.95;;
5630;SDS011;2837;50.990;7.124;2024-02-16T17:24:36;162.30;;;17.20;;
5630;SDS011;2837;50.990;7.124;2024-02-16T17:27:02;161.47;;;16.17;;
5630;SDS011;2837;50.990;7.124;2024-02-16T17:29:29;161.90;;;16.45;;
5630;SDS011;2837;50.990;7.124;2024-02-16T17:31:55;163.13;;;17.10;;
5630;SDS011;2837;50.990;7.124;2024-02-16T17:34:21;160.35;;;15.25;;
5630;SDS011;2837;50.990;7.124;2024-02-16T17:36:47;160.65;;;16.27;;
5630;SDS011;2837;50.990;7.124;2024-02-16T17:39:14;160.00;;;14.30;;
5630;SDS011;2837;50.990;7.124;2024-02-16T17:41:40;161.83;;;16.20;;
5630;SDS011;2837;50.990;7.124;2024-02-16T17:44:08;161.43;;;16.20;;
5630;SDS011;2837;50.990;7.124;2024-02-16T17:46:33;161.27;;;16.33;;
5630;SDS011;2837;50.990;7.124;2024-02-16T17:48:59;160.70;;;16.00;;
5630;SDS011;2837;50.990;7.124;2024-02-16T17:51:25;160.60;;;16.20;;
5630;SDS011;2837;50.990;7.124;2024-02-16T17:53:51;160.45;;;16.15;;
5630;SDS011;2837;50.990;7.124;2024-02-16T17:56:18;160.20;;;15.20;;
5630;SDS011;2837;50.990;7.124;2024-02-16T17:58:44;160.80;;;16.10;;
5630;SDS011;2837;50.990;7.124;2024-02-16T18:01:11;161.10;;;16.60;;
5630;SDS011;2837;50.990;7.124;2024-02-16T18:03:37;160.40;;;14.98;;
5630;SDS011;2837;50.990;7.124;2024-02-16T18:06:03;160.73;;;15.88;;
5630;SDS011;2837;50.990;7.124;2024-02-16T18:08:28;160.82;;;16.30;;
5630;SDS011;2837;50.990;7.124;2024-02-16T18:10:54;159.82;;;14.95;;
5630;SDS011;2837;50.990;7.124;2024-02-16T18:13:20;159.95;;;15.02;;
5630;SDS011;2837;50.990;7.124;2024-02-16T18:15:49;162.95;;;15.98;;
5630;SDS011;2837;50.990;7.124;2024-02-16T18:18:16;162.82;;;15.57;;
5630;SDS011;2837;50.990;7.124;2024-02-16T18:20:43;161.90;;;16.50;;
5630;SDS011;2837;50.990;7.124;2024-02-16T18:23:09;161.18;;;16.00;;
5630;SDS011;2837;50.990;7.124;2024-02-16T18:25:35;162.77;;;16.83;;
5630;SDS011;2837;50.990;7.124;2024-02-16T18:28:01;161.75;;;16.13;;
5630;SDS011;2837;50.990;7.124;2024-02-16T18:30:27;161.63;;;16.13;;
5630;SDS011;2837;50.990;7.124;2024-02-16T18:32:53;160.60;;;14.98;;
5630;SDS011;2837;50.990;7.124;2024-02-16T18:35:19;161.70;;;15.68;;
5630;SDS011;2837;50.990;7.124;2024-02-16T18:37:45;161.25;;;15.23;;
5630;SDS011;2837;50.990;7.124;2024-02-16T18:40:11;161.73;;;15.30;;
5630;SDS011;2837;50.990;7.124;2024-02-16T18:42:37;162.10;;;15.50;;
5630;SDS011;2837;50.990;7.124;2024-02-16T18:45:03;162.05;;;16.42;;
5630;SDS011;2837;50.990;7.124;2024-02-16T18:47:37;161.23;;;14.73;;
5630;SDS011;2837;50.990;7.124;2024-02-16T18:50:03;162.15;;;16.02;;
5630;SDS011;2837;50.990;7.124;2024-02-16T18:52:30;162.65;;;15.18;;
5630;SDS011;2837;50.990;7.124;2024-02-16T18:54:56;161.90;;;15.75;;
5630;SDS011;2837;50.990;7.124;2024-02-16T18:57:22;163.00;;;16.60;;
5630;SDS011;2837;50.990;7.124;2024-02-16T18:59:48;164.10;;;17.70;;
5630;SDS011;2837;50.990;7.124;2024-02-16T19:02:14;164.18;;;17.27;;
5630;SDS011;2837;50.990;7.124;2024-02-16T19:04:41;163.60;;;16.15;;
5630;SDS011;2837;50.990;7.124;2024-02-16T19:07:07;163.75;;;16.30;;
5630;SDS011;2837;50.990;7.124;2024-02-16T19:09:33;163.75;;;16.42;;
5630;SDS011;2837;50.990;7.124;2024-02-16T19:11:59;163.60;;;16.67;;
5630;SDS011;2837;50.990;7.124;2024-02-16T19:14:24;163.87;;;17.10;;
5630;SDS011;2837;50.990;7.124;2024-02-16T19:16:51;164.60;;;17.58;;
5630;SDS011;2837;50.990;7.124;2024-02-16T19:19:17;163.73;;;16.60;;
5630;SDS011;2837;50.990;7.124;2024-02-16T19:21:43;164.77;;;17.40;;
5630;SDS011;2837;50.990;7.124;2024-02-16T19:24:09;165.80;;;17.15;;
5630;SDS011;2837;50.990;7.124;2024-02-16T19:26:35;164.43;;;17.05;;
5630;SDS011;2837;50.990;7.124;2024-02-16T19:29:04;164.97;;;16.87;;
5630;SDS011;2837;50.990;7.124;2024-02-16T19:31:30;166.07;;;16.53;;
5630;SDS011;2837;50.990;7.124;2024-02-16T19:33:58;165.23;;;17.20;;
5630;SDS011;2837;50.990;7.124;2024-02-16T19:36:24;165.45;;;17.40;;
5630;SDS011;2837;50.990;7.124;2024-02-16T19:38:50;165.63;;;17.48;;
5630;SDS011;2837;50.990;7.124;2024-02-16T19:41:16;165.70;;;17.08;;
5630;SDS011;2837;50.990;7.124;2024-02-16T19:43:41;167.32;;;17.90;;
5630;SDS011;2837;50.990;7.124;2024-02-16T19:46:07;167.20;;;18.37;;
5630;SDS011;2837;50.990;7.124;2024-02-16T19:48:33;168.93;;;18.83;;
5630;SDS011;2837;50.990;7.124;2024-02-16T19:50:59;167.27;;;18.23;;
5630;SDS011;2837;50.990;7.124;2024-02-16T19:53:25;168.07;;;18.43;;
5630;SDS011;2837;50.990;7.124;2024-02-16T19:55:52;168.35;;;18.90;;
5630;SDS011;2837;50.990;7.124;2024-02-16T19:58:18;166.10;;;17.42;;
5630;SDS011;2837;50.990;7.124;2024-02-16T20:00:45;171.13;;;18.98;;
5630;SDS011;2837;50.990;7.124;2024-02-16T20:03:15;165.23;;;17.25;;
5630;SDS011;2837;50.990;7.124;2024-02-16T20:05:41;165.90;;;17.85;;
5630;SDS011;2837;50.990;7.124;2024-02-16T20:08:06;166.35;;;16.65;;
5630;SDS011;2837;50.990;7.124;2024-02-16T20:10:32;164.00;;;16.33;;
5630;SDS011;2837;50.990;7.124;2024-02-16T20:12:58;164.13;;;16.20;;
5630;SDS011;2837;50.990;7.124;2024-02-16T20:15:24;164.80;;;17.10;;
5630;SDS011;2837;50.990;7.124;2024-02-16T20:17:53;166.60;;;17.37;;
5630;SDS011;2837;50.990;7.124;2024-02-16T20:20:19;165.18;;;16.90;;
5630;SDS011;2837;50.990;7.124;2024-02-16T20:22:46;165.15;;;17.08;;
5630;SDS011;2837;50.990;7.124;2024-02-16T20:25:11;167.27;;;18.15;;
5630;SDS011;2837;50.990;7.124;2024-02-16T20:27:37;165.07;;;17.15;;
5630;SDS011;2837;50.990;7.124;2024-02-16T20:30:03;164.93;;;16.87;;
5630;SDS011;2837;50.990;7.124;2024-02-16T20:32:29;164.83;;;17.07;;
5630;SDS011;2837;50.990;7.124;2024-02-16T20:34:55;164.20;;;16.00;;